Terminal Aerodrome Forecast
Issued by NWS Wilmington, OH

Current Version | Previous Version | Graphics & Text | Print | Product List | Glossary On
Versions: 1 2 3 4 5 6 7 8 9 10 11 12 13 14 15 16 17 18
000
FTUS41 KILN 261900 AAA
TAFCMH
TAF AMD
KCMH 261906Z 2619/2718 35012KT P6SM -SN SCT015 BKN030
     FM262200 35010KT P6SM SCT015 BKN025
     FM270600 34005KT P6SM BKN025
     FM271000 34005KT P6SM SCT025=

USA.gov is the U.S. government's official web portal to all federal, state and local government web resources and services.